Flugplatz Trier-Föhren

Für EDRT sind keine METAR/TAF Berichte vorhanden.
Es werden die Flugwettermeldungen vom Flugplatz Spangdahlem Air Base in 14 km Entfernung angezeigt.

Bericht für ETAD

vom 20.09. um 13:56 UTC

kein Wind

Sichtweite 10 km oder mehr

keine Wolken

Temperatur 23.1°C

Taupunkt 4.1°C

Luftfeuchtigkeit 29%

Luftdruck 1016 hPa

ETAD 201356Z AUTO 00000KT 9999 CLR 23/04 A2999 RMK AO2 SLP137 T02310041

Prognose für ETAD

vom 20.09. um 10:00 UTC

Zwischen 10:00 UTC und 16:00 UTC

Wind 9 kt aus 50°

Sichtweite 10 km oder mehr

aufgelockert bewölkt in 18000 ft


Zwischen 16:00 und 17:00 UTC übergehend zu

variable Windrichtung mit 4 kt

Sichtweite 10 km oder mehr

gering bewölkt in 20000 ft


Am 21.09. zwischen 08:00 und 09:00 UTC übergehend zu

Wind 6 kt aus 80°

Sichtweite 10 km oder mehr

keine Wolken

TAF ETAD 201000Z 2010/2116 05009KT 9999 SCT180 QNH2998INS BECMG 2016/2017 VRB04KT 9999 FEW200 QNH2996INS BECMG 2108/2109 08006KT 9999 SKC QNH29995INS TX26/2014Z TN10/2104Z
Impressum